Terminal Aerodrome Forecast
Issued by NWS

Home | Current Version | Previous Version | Text Only | Print | Product List | Glossary On
Versions: 1 2 3 4 5 6 7 8 9 10 11 12 13 14
000
FTUS45 KFGZ 012300
TAFPRC
TAF
KPRC 012338Z 0200/0224 25012G25KT P6SM SCT250
     FM020200 21010KT P6SM SCT250
     FM021600 23017G28KT P6SM FEW250=

USA.gov is the U.S. government's official web portal to all federal, state and local government web resources and services.